6I2

Lebanon Springfield-George Hoerter Field Airport

Springfield, Kentucky, USA
METAR K6I2 181410Z AUTO 00000KT 9SM OVC012 03/03 A3014 RMK AO2
Observed Flight Rules
Jan-18 @ 14:10 UTC (24 minutes ago) Marginal Visual Flight Rules
Visibility Clouds
9 miles
  • Overcast at 1,200' AGL
Temperatures Readings
Current 3°C / 37°F
Dewpoint 3°C / 37°F
Humidity 100%
Altimeter 30.14" Hg
Pressure 1020.62 hPa
Elevation 264
METAR K6I2 181410Z AUTO 00000KT 9SM OVC012 03/03 A3014 RMK AO2
Observed Flight Rules
Jan-18 @ 14:10 UTC
(24 minutes ago)
MVFR
Clouds
  • Overcast at 1,200' AGL
Temperature Dewpoint
3°C / 37°F 3°C / 37°F
Humidity Altimeter Pressure
100% 30.14" Hg 1020.62 hPa